Colstrip, Montana
Current Conditions -  °F | °C
As of 3:53 AM on Friday 31 Oct 2014 (Local Time) from KMLS Reporting Station
Clear Clear  
Wind Chill: 22°   Ceiling: Unl
Heat Index: 34°   Visibility: 9mi
Dew Point: 30°   Wind: 21mph
Humidity: 85%   Direction: 140°SE
Pressure: 30.25"   Gusts: 26mph
Location:  45.88°N, 106.62°W
Report Text: KMLS 310953Z AUTO 14018G23KT 9SM CLR 01/M01 A3025 RMK AO2 PK WND 14026/0920 SLP258 T00111011
Loading
Personal Weather Stations






























Interactive Weather Map
Tropical Storm Tracking
New forecast layout! Learn more

10-Day Weather Forecast

Advertisements
Track Severe Weather on mobile